BAW73B LSGG-EGLL
Flight info
| Callsign | BAW73B |
|---|---|
| Flight time | 1h 14m |
| Altitude | 38000 |
| Route | DIPIR1A/22 N0453F380 DIPIR T37 IBABA DCT TUTAX DCT OBURO DCT OKRIX DCT CLM DCT KOPOR DCT ABNUR DCT DIMAL DCT ALESO ALESO1H |
| Aircraft | A319/M-SDE2E3FGHIJ1RWXY/SB1 |
Departure
| Time | 2026-05-05 17:20 |
|---|---|
| Airport | Geneva International Airport (LSGG) |
Arrival
| Time | 2026-05-05 18:34 |
|---|---|
| Airport | London Heathrow Airport (EGLL) |
| Time | Latitude | Longitude | Altitude | Speed | Heading |
|---|---|---|---|---|---|
| 2026-05-05 16:25 | 46.23310 | 6.10960 | 1393 ft | 0 kts | 136° |
| 2026-05-05 17:07 | 46.23317 | 6.10950 | 1401 ft | 4 kts | 136° |
| 2026-05-05 17:07 | 46.23334 | 6.10927 | 1404 ft | 2 kts | 136° |
| 2026-05-05 17:07 | 46.23351 | 6.10901 | 1405 ft | 4 kts | 129° |
| 2026-05-05 17:07 | 46.23365 | 6.10870 | 1399 ft | 4 kts | 85° |
| 2026-05-05 17:08 | 46.23362 | 6.10855 | 1401 ft | 3 kts | 45° |
| 2026-05-05 17:08 | 46.23359 | 6.10851 | 1400 ft | 0 kts | 45° |
| 2026-05-05 17:11 | 46.23365 | 6.10859 | 1402 ft | 5 kts | 45° |
| 2026-05-05 17:11 | 46.23404 | 6.10916 | 1393 ft | 9 kts | 46° |
| 2026-05-05 17:11 | 46.23447 | 6.10981 | 1393 ft | 9 kts | 45° |
| 2026-05-05 17:12 | 46.23490 | 6.11042 | 1397 ft | 9 kts | 45° |
| 2026-05-05 17:12 | 46.23534 | 6.11108 | 1397 ft | 9 kts | 46° |
| 2026-05-05 17:12 | 46.23587 | 6.11166 | 1397 ft | 10 kts | 8° |
| 2026-05-05 17:12 | 46.23640 | 6.11111 | 1392 ft | 10 kts | 315° |
| 2026-05-05 17:13 | 46.23702 | 6.11074 | 1388 ft | 13 kts | 32° |
| 2026-05-05 17:13 | 46.23778 | 6.11188 | 1380 ft | 18 kts | 45° |
| 2026-05-05 17:13 | 46.23869 | 6.11320 | 1375 ft | 19 kts | 45° |
| 2026-05-05 17:13 | 46.23962 | 6.11457 | 1373 ft | 19 kts | 45° |
| 2026-05-05 17:14 | 46.24059 | 6.11599 | 1369 ft | 21 kts | 45° |
| 2026-05-05 17:14 | 46.24173 | 6.11767 | 1364 ft | 27 kts | 45° |
| 2026-05-05 17:14 | 46.24318 | 6.11979 | 1364 ft | 30 kts | 46° |
| 2026-05-05 17:14 | 46.24416 | 6.12123 | 1370 ft | 18 kts | 45° |
| 2026-05-05 17:15 | 46.24502 | 6.12251 | 1372 ft | 18 kts | 45° |
| 2026-05-05 17:15 | 46.24598 | 6.12391 | 1370 ft | 22 kts | 45° |
| 2026-05-05 17:15 | 46.24716 | 6.12564 | 1363 ft | 27 kts | 45° |
| 2026-05-05 17:15 | 46.24847 | 6.12690 | 1364 ft | 14 kts | 14° |
| 2026-05-05 17:16 | 46.24936 | 6.12728 | 1367 ft | 13 kts | 14° |
| 2026-05-05 17:16 | 46.24999 | 6.12676 | 1371 ft | 10 kts | 289° |
| 2026-05-05 17:16 | 46.24979 | 6.12618 | 1372 ft | 0 kts | 224° |
| 2026-05-05 17:19 | 46.24965 | 6.12597 | 1372 ft | 14 kts | 225° |
| 2026-05-05 17:19 | 46.24755 | 6.12286 | 1372 ft | 73 kts | 225° |
| 2026-05-05 17:20 | 46.24267 | 6.11571 | 1374 ft | 127 kts | 225° |
| 2026-05-05 17:20 | 46.23550 | 6.10522 | 1616 ft | 152 kts | 227° |
| 2026-05-05 17:20 | 46.22819 | 6.09438 | 2254 ft | 151 kts | 226° |
| 2026-05-05 17:20 | 46.22083 | 6.08336 | 2879 ft | 153 kts | 225° |
| 2026-05-05 17:21 | 46.21330 | 6.07238 | 3497 ft | 154 kts | 224° |
| 2026-05-05 17:21 | 46.20576 | 6.06139 | 4138 ft | 154 kts | 223° |
| 2026-05-05 17:21 | 46.19810 | 6.05020 | 4697 ft | 163 kts | 223° |
| 2026-05-05 17:22 | 46.17979 | 6.02360 | 5407 ft | 212 kts | 224° |
| 2026-05-05 17:22 | 46.16880 | 6.00760 | 5927 ft | 236 kts | 224° |
| 2026-05-05 17:22 | 46.15678 | 5.99001 | 6623 ft | 253 kts | 225° |
| 2026-05-05 17:22 | 46.14542 | 5.97026 | 7523 ft | 261 kts | 239° |
| 2026-05-05 17:23 | 46.13967 | 5.94521 | 8474 ft | 269 kts | 261° |
| 2026-05-05 17:23 | 46.14110 | 5.91797 | 9433 ft | 279 kts | 283° |
| 2026-05-05 17:23 | 46.15010 | 5.89277 | 10322 ft | 290 kts | 307° |
| 2026-05-05 17:23 | 46.16599 | 5.87330 | 10835 ft | 317 kts | 330° |
| 2026-05-05 17:24 | 46.18750 | 5.86169 | 11252 ft | 339 kts | 340° |
| 2026-05-05 17:24 | 46.21031 | 5.85103 | 11930 ft | 348 kts | 340° |
| 2026-05-05 17:24 | 46.23325 | 5.84037 | 12656 ft | 353 kts | 340° |
| 2026-05-05 17:24 | 46.25671 | 5.82941 | 13459 ft | 357 kts | 339° |
| 2026-05-05 17:25 | 46.28042 | 5.81822 | 14170 ft | 361 kts | 339° |
| 2026-05-05 17:25 | 46.29668 | 5.81048 | 14647 ft | 364 kts | 339° |
| 2026-05-05 17:25 | 46.32873 | 5.79512 | 15549 ft | 369 kts | 338° |
| 2026-05-05 17:25 | 46.35327 | 5.78329 | 16231 ft | 374 kts | 338° |
| 2026-05-05 17:26 | 46.37813 | 5.77129 | 16914 ft | 379 kts | 338° |
| 2026-05-05 17:26 | 46.40327 | 5.75914 | 17576 ft | 383 kts | 338° |
| 2026-05-05 17:26 | 46.42873 | 5.74686 | 18255 ft | 388 kts | 338° |
| 2026-05-05 17:26 | 46.45450 | 5.73443 | 18859 ft | 392 kts | 338° |
| 2026-05-05 17:27 | 46.48047 | 5.72186 | 19460 ft | 396 kts | 338° |
| 2026-05-05 17:27 | 46.50680 | 5.70913 | 20057 ft | 401 kts | 338° |
| 2026-05-05 17:27 | 46.53345 | 5.69626 | 20647 ft | 405 kts | 338° |
| 2026-05-05 17:27 | 46.55985 | 5.68157 | 21210 ft | 407 kts | 330° |
| 2026-05-05 17:28 | 46.58476 | 5.66191 | 21782 ft | 409 kts | 327° |
| 2026-05-05 17:28 | 46.60968 | 5.64154 | 22330 ft | 413 kts | 327° |
| 2026-05-05 17:28 | 46.63487 | 5.62098 | 22889 ft | 417 kts | 327° |
| 2026-05-05 17:28 | 46.66034 | 5.60022 | 23418 ft | 421 kts | 327° |
| 2026-05-05 17:29 | 46.68573 | 5.57958 | 23887 ft | 425 kts | 327° |
| 2026-05-05 17:29 | 46.71174 | 5.55857 | 24352 ft | 429 kts | 327° |
| 2026-05-05 17:29 | 46.73800 | 5.53747 | 24797 ft | 432 kts | 327° |
| 2026-05-05 17:29 | 46.76437 | 5.51613 | 25244 ft | 435 kts | 327° |
| 2026-05-05 17:30 | 46.79077 | 5.49423 | 25685 ft | 438 kts | 326° |
| 2026-05-05 17:30 | 46.81732 | 5.47186 | 26121 ft | 441 kts | 326° |
| 2026-05-05 17:30 | 46.84270 | 5.44675 | 26542 ft | 440 kts | 316° |
| 2026-05-05 17:30 | 46.86475 | 5.41587 | 26961 ft | 438 kts | 306° |
| 2026-05-05 17:31 | 46.88295 | 5.38049 | 27392 ft | 435 kts | 297° |
| 2026-05-05 17:31 | 46.89704 | 5.34143 | 27812 ft | 433 kts | 288° |
| 2026-05-05 17:31 | 46.90789 | 5.30031 | 28236 ft | 436 kts | 288° |
| 2026-05-05 17:31 | 46.92259 | 5.26170 | 28628 ft | 448 kts | 302° |
| 2026-05-05 17:32 | 46.94486 | 5.22831 | 29036 ft | 460 kts | 319° |
| 2026-05-05 17:32 | 46.97102 | 5.20173 | 29436 ft | 465 kts | 322° |
| 2026-05-05 17:32 | 46.99808 | 5.17534 | 29829 ft | 469 kts | 323° |
| 2026-05-05 17:32 | 47.02549 | 5.14902 | 30171 ft | 472 kts | 323° |
| 2026-05-05 17:33 | 47.05307 | 5.12267 | 30518 ft | 474 kts | 323° |
| 2026-05-05 17:33 | 47.08072 | 5.09618 | 30872 ft | 476 kts | 323° |
| 2026-05-05 17:33 | 47.10844 | 5.06947 | 31217 ft | 477 kts | 323° |
| 2026-05-05 17:33 | 47.13622 | 5.04254 | 31577 ft | 478 kts | 323° |
| 2026-05-05 17:34 | 47.16386 | 5.01562 | 32083 ft | 476 kts | 323° |
| 2026-05-05 17:34 | 47.19137 | 4.98870 | 32596 ft | 473 kts | 323° |
| 2026-05-05 17:34 | 47.21869 | 4.96187 | 33108 ft | 471 kts | 323° |
| 2026-05-05 17:34 | 47.24593 | 4.93516 | 33621 ft | 469 kts | 323° |
| 2026-05-05 17:35 | 47.27302 | 4.90862 | 34100 ft | 467 kts | 323° |
| 2026-05-05 17:35 | 47.30003 | 4.88212 | 34522 ft | 466 kts | 323° |
| 2026-05-05 17:35 | 47.32661 | 4.85603 | 34916 ft | 464 kts | 323° |
| 2026-05-05 17:35 | 47.35348 | 4.82961 | 35313 ft | 463 kts | 323° |
| 2026-05-05 17:36 | 47.38026 | 4.80322 | 35695 ft | 463 kts | 323° |
| 2026-05-05 17:36 | 47.40703 | 4.77680 | 36060 ft | 462 kts | 323° |
| 2026-05-05 17:36 | 47.43370 | 4.75046 | 36410 ft | 461 kts | 323° |
| 2026-05-05 17:36 | 47.46037 | 4.72412 | 36765 ft | 461 kts | 323° |
| 2026-05-05 17:37 | 47.48700 | 4.69781 | 37119 ft | 460 kts | 323° |
| 2026-05-05 17:37 | 47.50464 | 4.68036 | 37344 ft | 459 kts | 323° |
| 2026-05-05 17:37 | 47.54023 | 4.64512 | 37777 ft | 459 kts | 323° |
| 2026-05-05 17:38 | 47.59325 | 4.59247 | 37841 ft | 457 kts | 323° |
| 2026-05-05 17:38 | 47.64598 | 4.53978 | 37842 ft | 457 kts | 323° |
| 2026-05-05 17:39 | 47.69869 | 4.48707 | 37841 ft | 457 kts | 323° |
| 2026-05-05 17:39 | 47.75149 | 4.43424 | 37833 ft | 457 kts | 323° |
| 2026-05-05 17:40 | 47.80394 | 4.38172 | 37835 ft | 457 kts | 323° |
| 2026-05-05 17:40 | 47.85662 | 4.32867 | 37827 ft | 457 kts | 323° |
| 2026-05-05 17:41 | 47.90927 | 4.27546 | 37828 ft | 457 kts | 323° |
| 2026-05-05 17:41 | 47.96189 | 4.22229 | 37818 ft | 457 kts | 323° |
| 2026-05-05 17:42 | 48.01463 | 4.16893 | 37816 ft | 457 kts | 323° |
| 2026-05-05 17:42 | 48.06729 | 4.11542 | 37807 ft | 457 kts | 323° |
| 2026-05-05 17:43 | 48.11990 | 4.06174 | 37808 ft | 457 kts | 323° |
| 2026-05-05 17:43 | 48.17251 | 4.00795 | 37807 ft | 457 kts | 323° |
| 2026-05-05 17:44 | 48.22501 | 3.95419 | 37818 ft | 457 kts | 323° |
| 2026-05-05 17:44 | 48.27761 | 3.90032 | 37806 ft | 457 kts | 323° |
| 2026-05-05 17:45 | 48.33013 | 3.84629 | 37815 ft | 458 kts | 323° |
| 2026-05-05 17:45 | 48.38227 | 3.79240 | 37800 ft | 458 kts | 323° |
| 2026-05-05 17:46 | 48.43466 | 3.73801 | 37805 ft | 458 kts | 323° |
| 2026-05-05 17:46 | 48.48720 | 3.68355 | 37801 ft | 458 kts | 323° |
| 2026-05-05 17:47 | 48.53964 | 3.62915 | 37808 ft | 458 kts | 323° |
| 2026-05-05 17:47 | 48.59203 | 3.57448 | 37808 ft | 458 kts | 323° |
| 2026-05-05 17:48 | 48.64440 | 3.51967 | 37807 ft | 458 kts | 323° |
| 2026-05-05 17:48 | 48.69679 | 3.46482 | 37807 ft | 458 kts | 323° |
| 2026-05-05 17:49 | 48.74917 | 3.40986 | 37811 ft | 458 kts | 323° |
| 2026-05-05 17:49 | 48.80151 | 3.35485 | 37809 ft | 458 kts | 323° |
| 2026-05-05 17:50 | 48.85382 | 3.29960 | 37808 ft | 458 kts | 323° |
| 2026-05-05 17:50 | 48.90610 | 3.24420 | 37806 ft | 458 kts | 323° |
| 2026-05-05 17:51 | 48.95843 | 3.18872 | 37814 ft | 458 kts | 323° |
| 2026-05-05 17:51 | 49.01071 | 3.13301 | 37820 ft | 459 kts | 323° |
| 2026-05-05 17:52 | 49.05419 | 3.08664 | 37853 ft | 459 kts | 324° |
| 2026-05-05 17:52 | 49.10653 | 3.03069 | 37827 ft | 460 kts | 324° |
| 2026-05-05 17:53 | 49.15889 | 2.97451 | 37822 ft | 460 kts | 324° |
| 2026-05-05 17:53 | 49.21127 | 2.91815 | 37823 ft | 461 kts | 323° |
| 2026-05-05 17:54 | 49.26366 | 2.86161 | 37828 ft | 461 kts | 323° |
| 2026-05-05 17:54 | 49.31606 | 2.80494 | 37825 ft | 461 kts | 323° |
| 2026-05-05 17:55 | 49.36849 | 2.74813 | 37831 ft | 461 kts | 323° |
| 2026-05-05 17:55 | 49.42095 | 2.69125 | 37837 ft | 462 kts | 323° |
| 2026-05-05 17:56 | 49.47336 | 2.63419 | 37842 ft | 462 kts | 323° |
| 2026-05-05 17:56 | 49.52569 | 2.57698 | 37846 ft | 462 kts | 323° |
| 2026-05-05 17:57 | 49.57803 | 2.51968 | 37849 ft | 462 kts | 323° |
| 2026-05-05 17:57 | 49.63045 | 2.46219 | 37855 ft | 462 kts | 323° |
| 2026-05-05 17:58 | 49.68277 | 2.40448 | 37858 ft | 462 kts | 323° |
| 2026-05-05 17:58 | 49.73498 | 2.34675 | 37863 ft | 462 kts | 323° |
| 2026-05-05 17:59 | 49.78724 | 2.28899 | 37863 ft | 461 kts | 323° |
| 2026-05-05 17:59 | 49.83938 | 2.23107 | 37871 ft | 461 kts | 323° |
| 2026-05-05 18:00 | 49.89119 | 2.17335 | 37871 ft | 461 kts | 323° |
| 2026-05-05 18:00 | 49.94325 | 2.11521 | 37872 ft | 461 kts | 323° |
| 2026-05-05 18:01 | 49.99534 | 2.05696 | 37865 ft | 461 kts | 323° |
| 2026-05-05 18:01 | 50.04745 | 1.99857 | 37868 ft | 461 kts | 323° |
| 2026-05-05 18:02 | 50.09952 | 1.94002 | 37879 ft | 462 kts | 323° |
| 2026-05-05 18:02 | 50.15147 | 1.88125 | 37852 ft | 462 kts | 322° |
| 2026-05-05 18:02 | 50.17666 | 1.85026 | 37578 ft | 460 kts | 315° |
| 2026-05-05 18:03 | 50.19950 | 1.81536 | 37309 ft | 459 kts | 314° |
| 2026-05-05 18:03 | 50.22215 | 1.78022 | 37042 ft | 460 kts | 314° |
| 2026-05-05 18:03 | 50.24485 | 1.74494 | 36782 ft | 460 kts | 314° |
| 2026-05-05 18:03 | 50.26756 | 1.70961 | 36522 ft | 461 kts | 314° |
| 2026-05-05 18:04 | 50.29027 | 1.67418 | 36266 ft | 461 kts | 314° |
| 2026-05-05 18:04 | 50.31296 | 1.63873 | 35706 ft | 463 kts | 314° |
| 2026-05-05 18:04 | 50.33590 | 1.60289 | 34857 ft | 469 kts | 314° |
| 2026-05-05 18:04 | 50.35910 | 1.56662 | 34053 ft | 473 kts | 315° |
| 2026-05-05 18:05 | 50.38244 | 1.53006 | 33002 ft | 478 kts | 315° |
| 2026-05-05 18:05 | 50.40604 | 1.49300 | 32204 ft | 478 kts | 314° |
| 2026-05-05 18:05 | 50.42926 | 1.45649 | 31748 ft | 470 kts | 314° |
| 2026-05-05 18:05 | 50.45226 | 1.42035 | 31148 ft | 465 kts | 314° |
| 2026-05-05 18:06 | 50.47503 | 1.38458 | 30579 ft | 461 kts | 314° |
| 2026-05-05 18:06 | 50.48998 | 1.36105 | 30197 ft | 458 kts | 314° |
| 2026-05-05 18:06 | 50.51986 | 1.31390 | 29372 ft | 451 kts | 314° |
| 2026-05-05 18:06 | 50.54180 | 1.27924 | 28814 ft | 444 kts | 314° |
| 2026-05-05 18:07 | 50.56316 | 1.24543 | 28269 ft | 438 kts | 314° |
| 2026-05-05 18:07 | 50.58458 | 1.21149 | 27718 ft | 433 kts | 314° |
| 2026-05-05 18:07 | 50.60571 | 1.17815 | 27177 ft | 428 kts | 314° |
| 2026-05-05 18:07 | 50.62661 | 1.14523 | 26644 ft | 423 kts | 314° |
| 2026-05-05 18:08 | 50.64727 | 1.11265 | 26133 ft | 417 kts | 314° |
| 2026-05-05 18:08 | 50.66766 | 1.08043 | 25625 ft | 412 kts | 314° |
| 2026-05-05 18:08 | 50.68778 | 1.04854 | 25139 ft | 408 kts | 314° |
| 2026-05-05 18:08 | 50.70767 | 1.01696 | 24660 ft | 403 kts | 314° |
| 2026-05-05 18:09 | 50.72734 | 0.98573 | 24197 ft | 399 kts | 314° |
| 2026-05-05 18:09 | 50.74686 | 0.95467 | 23737 ft | 396 kts | 314° |
| 2026-05-05 18:09 | 50.76613 | 0.92392 | 23251 ft | 392 kts | 314° |
| 2026-05-05 18:09 | 50.78517 | 0.89348 | 22797 ft | 387 kts | 314° |
| 2026-05-05 18:10 | 50.80374 | 0.86375 | 22352 ft | 382 kts | 315° |
| 2026-05-05 18:10 | 50.82229 | 0.83400 | 21902 ft | 377 kts | 315° |
| 2026-05-05 18:10 | 50.84056 | 0.80470 | 21439 ft | 372 kts | 315° |
| 2026-05-05 18:10 | 50.85865 | 0.77570 | 20978 ft | 368 kts | 315° |
| 2026-05-05 18:11 | 50.87653 | 0.74705 | 20513 ft | 364 kts | 315° |
| 2026-05-05 18:11 | 50.89420 | 0.71867 | 20039 ft | 360 kts | 315° |
| 2026-05-05 18:11 | 50.91174 | 0.69049 | 19556 ft | 357 kts | 315° |
| 2026-05-05 18:11 | 50.92916 | 0.66251 | 19075 ft | 355 kts | 315° |
| 2026-05-05 18:12 | 50.94644 | 0.63467 | 18583 ft | 353 kts | 315° |
| 2026-05-05 18:12 | 50.96363 | 0.60697 | 18074 ft | 352 kts | 315° |
| 2026-05-05 18:12 | 50.98079 | 0.57929 | 17551 ft | 354 kts | 315° |
| 2026-05-05 18:12 | 50.99808 | 0.55137 | 16902 ft | 355 kts | 315° |
| 2026-05-05 18:13 | 51.01544 | 0.52338 | 16267 ft | 355 kts | 315° |
| 2026-05-05 18:13 | 51.03278 | 0.49535 | 15629 ft | 355 kts | 315° |
| 2026-05-05 18:13 | 51.05006 | 0.46726 | 14998 ft | 355 kts | 315° |
| 2026-05-05 18:13 | 51.06734 | 0.43912 | 14359 ft | 355 kts | 315° |
| 2026-05-05 18:14 | 51.08481 | 0.41141 | 13693 ft | 355 kts | 316° |
| 2026-05-05 18:14 | 51.10260 | 0.38420 | 13023 ft | 353 kts | 317° |
| 2026-05-05 18:14 | 51.12040 | 0.35739 | 12377 ft | 351 kts | 317° |
| 2026-05-05 18:14 | 51.13805 | 0.33084 | 11754 ft | 347 kts | 317° |
| 2026-05-05 18:15 | 51.15516 | 0.30493 | 11586 ft | 332 kts | 317° |
| 2026-05-05 18:15 | 51.17147 | 0.28011 | 11456 ft | 316 kts | 317° |
| 2026-05-05 18:15 | 51.18653 | 0.25558 | 11318 ft | 304 kts | 313° |
| 2026-05-05 18:15 | 51.20058 | 0.23116 | 11154 ft | 293 kts | 314° |
| 2026-05-05 18:16 | 51.21445 | 0.20825 | 11017 ft | 282 kts | 316° |
| 2026-05-05 18:16 | 51.22856 | 0.18717 | 10737 ft | 273 kts | 319° |
| 2026-05-05 18:16 | 51.24301 | 0.16831 | 10618 ft | 264 kts | 324° |
| 2026-05-05 18:16 | 51.25805 | 0.15176 | 10482 ft | 256 kts | 328° |
| 2026-05-05 18:17 | 51.27198 | 0.13397 | 10018 ft | 264 kts | 313° |
| 2026-05-05 18:17 | 51.28415 | 0.11264 | 9898 ft | 255 kts | 314° |
| 2026-05-05 18:17 | 51.29621 | 0.09232 | 9696 ft | 250 kts | 315° |
| 2026-05-05 18:17 | 51.30819 | 0.07236 | 9421 ft | 248 kts | 315° |
| 2026-05-05 18:18 | 51.32007 | 0.05256 | 9140 ft | 246 kts | 315° |
| 2026-05-05 18:18 | 51.33178 | 0.03272 | 8870 ft | 245 kts | 311° |
| 2026-05-05 18:18 | 51.33928 | 0.00854 | 8587 ft | 246 kts | 283° |
| 2026-05-05 18:18 | 51.34148 | -0.01856 | 8303 ft | 246 kts | 277° |
| 2026-05-05 18:19 | 51.34290 | -0.04573 | 8034 ft | 244 kts | 276° |
| 2026-05-05 18:19 | 51.34419 | -0.07248 | 7938 ft | 244 kts | 276° |
| 2026-05-05 18:19 | 51.34547 | -0.09961 | 7943 ft | 245 kts | 276° |
| 2026-05-05 18:19 | 51.34673 | -0.12676 | 7949 ft | 245 kts | 276° |
| 2026-05-05 18:20 | 51.34799 | -0.15397 | 7938 ft | 245 kts | 276° |
| 2026-05-05 18:20 | 51.34924 | -0.18115 | 7947 ft | 245 kts | 276° |
| 2026-05-05 18:20 | 51.35050 | -0.20839 | 7948 ft | 245 kts | 276° |
| 2026-05-05 18:20 | 51.35175 | -0.23562 | 7948 ft | 245 kts | 276° |
| 2026-05-05 18:21 | 51.35299 | -0.26280 | 7946 ft | 245 kts | 276° |
| 2026-05-05 18:21 | 51.35425 | -0.29005 | 7944 ft | 245 kts | 276° |
| 2026-05-05 18:21 | 51.35551 | -0.31724 | 7943 ft | 245 kts | 276° |
| 2026-05-05 18:21 | 51.35678 | -0.34442 | 7943 ft | 245 kts | 276° |
| 2026-05-05 18:22 | 51.35806 | -0.37166 | 7939 ft | 245 kts | 276° |
| 2026-05-05 18:22 | 51.35933 | -0.39884 | 7948 ft | 245 kts | 276° |
| 2026-05-05 18:22 | 51.36061 | -0.42606 | 7945 ft | 245 kts | 276° |
| 2026-05-05 18:22 | 51.36188 | -0.45323 | 7948 ft | 245 kts | 276° |
| 2026-05-05 18:23 | 51.36316 | -0.48038 | 7947 ft | 245 kts | 276° |
| 2026-05-05 18:23 | 51.36444 | -0.50756 | 7949 ft | 245 kts | 276° |
| 2026-05-05 18:23 | 51.36571 | -0.53467 | 7946 ft | 245 kts | 276° |
| 2026-05-05 18:23 | 51.36697 | -0.56192 | 7949 ft | 245 kts | 276° |
| 2026-05-05 18:24 | 51.36824 | -0.58898 | 7942 ft | 245 kts | 276° |
| 2026-05-05 18:24 | 51.36951 | -0.61612 | 7946 ft | 245 kts | 276° |
| 2026-05-05 18:24 | 51.37079 | -0.64339 | 7948 ft | 245 kts | 276° |
| 2026-05-05 18:24 | 51.37207 | -0.67071 | 7736 ft | 246 kts | 276° |
| 2026-05-05 18:25 | 51.37332 | -0.69779 | 7482 ft | 244 kts | 276° |
| 2026-05-05 18:25 | 51.37415 | -0.71575 | 7314 ft | 243 kts | 276° |
| 2026-05-05 18:25 | 51.37584 | -0.75193 | 6914 ft | 243 kts | 276° |
| 2026-05-05 18:25 | 51.37707 | -0.77863 | 6725 ft | 238 kts | 276° |
| 2026-05-05 18:26 | 51.37825 | -0.80464 | 6582 ft | 231 kts | 276° |
| 2026-05-05 18:26 | 51.37937 | -0.82977 | 6456 ft | 222 kts | 276° |
| 2026-05-05 18:26 | 51.38041 | -0.85382 | 6334 ft | 211 kts | 276° |
| 2026-05-05 18:26 | 51.38280 | -0.87598 | 6185 ft | 199 kts | 298° |
| 2026-05-05 18:27 | 51.39198 | -0.89130 | 6059 ft | 191 kts | 337° |
| 2026-05-05 18:27 | 51.40479 | -0.89540 | 5937 ft | 189 kts | 358° |
| 2026-05-05 18:27 | 51.41792 | -0.89583 | 5686 ft | 188 kts | 1° |
| 2026-05-05 18:27 | 51.43096 | -0.89581 | 5427 ft | 187 kts | 1° |
| 2026-05-05 18:28 | 51.45647 | -0.89230 | 4900 ft | 184 kts | 29° |
| 2026-05-05 18:28 | 51.46524 | -0.87767 | 4708 ft | 185 kts | 56° |
| 2026-05-05 18:28 | 51.47157 | -0.85970 | 4498 ft | 184 kts | 60° |
| 2026-05-05 18:29 | 51.47547 | -0.84017 | 4397 ft | 188 kts | 83° |
| 2026-05-05 18:29 | 51.47572 | -0.81918 | 4196 ft | 188 kts | 87° |
| 2026-05-05 18:29 | 51.47581 | -0.79820 | 3957 ft | 188 kts | 87° |
| 2026-05-05 18:29 | 51.47592 | -0.77743 | 3727 ft | 184 kts | 87° |
| 2026-05-05 18:30 | 51.47605 | -0.75729 | 3472 ft | 179 kts | 87° |
| 2026-05-05 18:30 | 51.47617 | -0.73783 | 3227 ft | 170 kts | 86° |
| 2026-05-05 18:30 | 51.47628 | -0.71907 | 2997 ft | 166 kts | 86° |
| 2026-05-05 18:30 | 51.47639 | -0.70071 | 2775 ft | 164 kts | 86° |
| 2026-05-05 18:31 | 51.47650 | -0.68248 | 2557 ft | 162 kts | 86° |
| 2026-05-05 18:31 | 51.47661 | -0.66441 | 2343 ft | 162 kts | 86° |
| 2026-05-05 18:31 | 51.47671 | -0.64629 | 2119 ft | 162 kts | 86° |
| 2026-05-05 18:31 | 51.47681 | -0.62834 | 1901 ft | 162 kts | 86° |
| 2026-05-05 18:32 | 51.47690 | -0.61033 | 1683 ft | 161 kts | 87° |
| 2026-05-05 18:32 | 51.47699 | -0.59251 | 1467 ft | 158 kts | 87° |
| 2026-05-05 18:32 | 51.47706 | -0.57574 | 1265 ft | 142 kts | 87° |
| 2026-05-05 18:32 | 51.47713 | -0.56073 | 1068 ft | 130 kts | 87° |
| 2026-05-05 18:33 | 51.47720 | -0.54651 | 887 ft | 126 kts | 86° |
| 2026-05-05 18:33 | 51.47726 | -0.53258 | 707 ft | 126 kts | 86° |
| 2026-05-05 18:33 | 51.47731 | -0.52318 | 588 ft | 124 kts | 86° |
| 2026-05-05 18:33 | 51.47743 | -0.50475 | 390 ft | 125 kts | 85° |
| 2026-05-05 18:34 | 51.47749 | -0.49519 | 267 ft | 126 kts | 86° |
| 2026-05-05 18:34 | 51.47750 | -0.48138 | 107 ft | 124 kts | 87° |
| 2026-05-05 18:34 | 51.47756 | -0.47055 | 90 ft | 63 kts | 90° |
| 2026-05-05 18:34 | 51.47758 | -0.46436 | 90 ft | 49 kts | 89° |
| 2026-05-05 18:35 | 51.47709 | -0.46154 | 87 ft | 25 kts | 138° |
| 2026-05-05 18:35 | 51.47593 | -0.46139 | 87 ft | 21 kts | 264° |
| 2026-05-05 18:35 | 51.47593 | -0.46387 | 87 ft | 24 kts | 269° |
| 2026-05-05 18:35 | 51.47592 | -0.46671 | 87 ft | 27 kts | 269° |
| 2026-05-05 18:36 | 51.47583 | -0.46950 | 90 ft | 24 kts | 266° |
| 2026-05-05 18:36 | 51.47582 | -0.47206 | 89 ft | 18 kts | 269° |
| 2026-05-05 18:36 | 51.47581 | -0.47423 | 89 ft | 21 kts | 270° |
| 2026-05-05 18:36 | 51.47581 | -0.47673 | 87 ft | 24 kts | 270° |
| 2026-05-05 18:37 | 51.47580 | -0.47956 | 89 ft | 26 kts | 270° |
| 2026-05-05 18:37 | 51.47578 | -0.48233 | 89 ft | 24 kts | 270° |
| 2026-05-05 18:37 | 51.47575 | -0.48432 | 87 ft | 12 kts | 250° |
| 2026-05-05 18:37 | 51.47506 | -0.48479 | 87 ft | 11 kts | 179° |
| 2026-05-05 18:38 | 51.47428 | -0.48478 | 87 ft | 12 kts | 180° |
| 2026-05-05 18:38 | 51.47348 | -0.48477 | 87 ft | 11 kts | 179° |
| 2026-05-05 18:38 | 51.47272 | -0.48477 | 87 ft | 11 kts | 180° |
| 2026-05-05 18:38 | 51.47204 | -0.48476 | 87 ft | 9 kts | 179° |
| 2026-05-05 18:39 | 51.47145 | -0.48476 | 87 ft | 8 kts | 180° |
| 2026-05-05 18:39 | 51.47088 | -0.48476 | 87 ft | 8 kts | 180° |
| 2026-05-05 18:39 | 51.47034 | -0.48475 | 87 ft | 8 kts | 179° |
| 2026-05-05 18:39 | 51.46983 | -0.48474 | 87 ft | 7 kts | 179° |
| 2026-05-05 18:40 | 51.46935 | -0.48473 | 87 ft | 7 kts | 179° |
| 2026-05-05 18:40 | 51.46891 | -0.48479 | 87 ft | 6 kts | 200° |
| 2026-05-05 18:40 | 51.46876 | -0.48540 | 89 ft | 6 kts | 269° |
| 2026-05-05 18:40 | 51.46883 | -0.48570 | 87 ft | 3 kts | 315° |
| 2026-05-05 18:41 | 51.46903 | -0.48576 | 89 ft | 3 kts | 357° |
| 2026-05-05 18:41 | 51.46922 | -0.48575 | 87 ft | 3 kts | 0° |
| 2026-05-05 18:41 | 51.46931 | -0.48575 | 87 ft | 1 kts | 0° |
| 2026-05-05 18:41 | 51.46932 | -0.48575 | 87 ft | 0 kts | 0° |